Ault Field, Washington
Current Conditions -  °F | °C
As of 9:56 AM on Thursday 30 Oct 2014 (Local Time) from KNUW Reporting Station
Overcast Overcast  
Wind Chill: 15°   Ceiling: 12000
Heat Index: 15°   Visibility: 10mi
Dew Point:   Wind: 16mph
Humidity: 64%   Direction: 130°SE
Pressure: 29.83"   Gusts: NA
Location:  48.3182°N, 122.634°W
Report Text: KNUW 301656Z 13014KT 10SM SCT055 BKN120 OVC160 15/08 A2983 RMK AO2 SLP105 VIRGA SE AND W-N T01500083 $
Loading
Personal Weather Stations






























Interactive Weather Map
Tropical Storm Tracking
New forecast layout! Learn more

10-Day Weather Forecast

Advertisements
Track Severe Weather on mobile